RJNA(METAR)
05/26 20:00
METAR RJNA 261100Z 15012KT 9999 FEW030 22/17 Q1009 RMK 1CU030 A2980=
戻る
トップページへ戻る
IMOC Co,.Ltd.